sensor_id;sensor_type;location;lat;lon;timestamp;temperature;humidity
23289;DHT22;11813;50.834;4.280;2022-07-04T00:00:19;16.80;99.90
23289;DHT22;11813;50.834;4.280;2022-07-04T00:02:46;16.70;99.90
23289;DHT22;11813;50.834;4.280;2022-07-04T00:05:12;16.60;99.90
23289;DHT22;11813;50.834;4.280;2022-07-04T00:07:39;16.50;99.90
23289;DHT22;11813;50.834;4.280;2022-07-04T00:10:06;16.50;99.90
23289;DHT22;11813;50.834;4.280;2022-07-04T00:12:32;16.40;99.90
23289;DHT22;11813;50.834;4.280;2022-07-04T00:14:58;16.40;99.90
23289;DHT22;11813;50.834;4.280;2022-07-04T00:17:24;16.40;99.90
23289;DHT22;11813;50.834;4.280;2022-07-04T00:19:49;16.40;99.90
23289;DHT22;11813;50.834;4.280;2022-07-04T00:22:15;16.50;99.90
23289;DHT22;11813;50.834;4.280;2022-07-04T00:24:41;16.50;99.90
23289;DHT22;11813;50.834;4.280;2022-07-04T00:27:06;16.60;99.90
23289;DHT22;11813;50.834;4.280;2022-07-04T00:29:32;16.60;99.90
23289;DHT22;11813;50.834;4.280;2022-07-04T00:31:59;16.50;99.90
23289;DHT22;11813;50.834;4.280;2022-07-04T00:34:24;16.50;99.90
23289;DHT22;11813;50.834;4.280;2022-07-04T00:36:50;16.50;99.90
23289;DHT22;11813;50.834;4.280;2022-07-04T00:39:15;16.50;99.90
23289;DHT22;11813;50.834;4.280;2022-07-04T00:41:41;16.50;99.90
23289;DHT22;11813;50.834;4.280;2022-07-04T00:44:09;16.40;99.90
23289;DHT22;11813;50.834;4.280;2022-07-04T00:46:35;16.40;99.90
23289;DHT22;11813;50.834;4.280;2022-07-04T00:49:03;16.40;99.90
23289;DHT22;11813;50.834;4.280;2022-07-04T00:51:29;16.40;99.90
23289;DHT22;11813;50.834;4.280;2022-07-04T00:53:55;16.40;99.90
23289;DHT22;11813;50.834;4.280;2022-07-04T00:56:22;16.30;99.90
23289;DHT22;11813;50.834;4.280;2022-07-04T00:58:48;16.30;99.90
23289;DHT22;11813;50.834;4.280;2022-07-04T01:01:14;16.30;99.90
23289;DHT22;11813;50.834;4.280;2022-07-04T01:03:40;16.30;99.90
23289;DHT22;11813;50.834;4.280;2022-07-04T01:06:06;16.30;99.90
23289;DHT22;11813;50.834;4.280;2022-07-04T01:08:37;16.40;99.90
23289;DHT22;11813;50.834;4.280;2022-07-04T01:11:03;16.40;99.90
23289;DHT22;11813;50.834;4.280;2022-07-04T01:13:28;16.30;99.90
23289;DHT22;11813;50.834;4.280;2022-07-04T01:15:54;16.30;99.90
23289;DHT22;11813;50.834;4.280;2022-07-04T01:18:21;16.30;99.90
23289;DHT22;11813;50.834;4.280;2022-07-04T01:20:46;16.30;99.90
23289;DHT22;11813;50.834;4.280;2022-07-04T01:23:12;16.20;99.90
23289;DHT22;11813;50.834;4.280;2022-07-04T01:25:38;16.30;99.90
23289;DHT22;11813;50.834;4.280;2022-07-04T01:28:04;16.20;99.90
23289;DHT22;11813;50.834;4.280;2022-07-04T01:30:32;16.20;99.90
23289;DHT22;11813;50.834;4.280;2022-07-04T01:32:57;16.20;99.90
23289;DHT22;11813;50.834;4.280;2022-07-04T01:35:23;16.10;99.90
23289;DHT22;11813;50.834;4.280;2022-07-04T01:37:50;16.00;99.90
23289;DHT22;11813;50.834;4.280;2022-07-04T01:40:16;15.90;99.90
23289;DHT22;11813;50.834;4.280;2022-07-04T01:42:42;15.60;99.90
23289;DHT22;11813;50.834;4.280;2022-07-04T01:45:09;15.50;99.90
23289;DHT22;11813;50.834;4.280;2022-07-04T01:47:36;15.50;99.90
23289;DHT22;11813;50.834;4.280;2022-07-04T01:50:03;15.40;99.90
23289;DHT22;11813;50.834;4.280;2022-07-04T01:52:29;15.50;99.90
23289;DHT22;11813;50.834;4.280;2022-07-04T01:54:54;15.40;99.90
23289;DHT22;11813;50.834;4.280;2022-07-04T01:57:20;15.50;99.90
23289;DHT22;11813;50.834;4.280;2022-07-04T01:59:45;15.40;99.90
23289;DHT22;11813;50.834;4.280;2022-07-04T02:02:29;15.40;99.90
23289;DHT22;11813;50.834;4.280;2022-07-04T02:04:55;15.40;99.90
23289;DHT22;11813;50.834;4.280;2022-07-04T02:07:21;15.40;99.90
23289;DHT22;11813;50.834;4.280;2022-07-04T02:09:46;15.40;99.90
23289;DHT22;11813;50.834;4.280;2022-07-04T02:12:12;15.40;99.90
23289;DHT22;11813;50.834;4.280;2022-07-04T02:14:57;15.40;99.90
23289;DHT22;11813;50.834;4.280;2022-07-04T02:17:22;15.30;99.90
23289;DHT22;11813;50.834;4.280;2022-07-04T02:19:48;15.30;99.90
23289;DHT22;11813;50.834;4.280;2022-07-04T02:22:14;15.30;99.90
23289;DHT22;11813;50.834;4.280;2022-07-04T02:24:40;15.30;99.90
23289;DHT22;11813;50.834;4.280;2022-07-04T02:27:06;15.40;99.90
23289;DHT22;11813;50.834;4.280;2022-07-04T02:29:32;15.40;99.90
23289;DHT22;11813;50.834;4.280;2022-07-04T02:31:58;15.30;99.90
23289;DHT22;11813;50.834;4.280;2022-07-04T02:34:23;15.30;99.90
23289;DHT22;11813;50.834;4.280;2022-07-04T02:36:49;15.20;99.90
23289;DHT22;11813;50.834;4.280;2022-07-04T02:39:15;15.30;99.90
23289;DHT22;11813;50.834;4.280;2022-07-04T02:41:40;15.30;99.90
23289;DHT22;11813;50.834;4.280;2022-07-04T02:44:06;15.30;99.90
23289;DHT22;11813;50.834;4.280;2022-07-04T02:46:32;15.20;99.90
23289;DHT22;11813;50.834;4.280;2022-07-04T02:48:59;15.20;99.90
23289;DHT22;11813;50.834;4.280;2022-07-04T02:51:25;15.20;99.90
23289;DHT22;11813;50.834;4.280;2022-07-04T02:53:50;15.20;99.90
23289;DHT22;11813;50.834;4.280;2022-07-04T02:56:16;15.20;99.90
23289;DHT22;11813;50.834;4.280;2022-07-04T02:58:42;15.10;99.90
23289;DHT22;11813;50.834;4.280;2022-07-04T03:01:08;15.10;99.90
23289;DHT22;11813;50.834;4.280;2022-07-04T03:03:33;15.10;99.90
23289;DHT22;11813;50.834;4.280;2022-07-04T03:05:59;15.00;99.90
23289;DHT22;11813;50.834;4.280;2022-07-04T03:08:25;15.00;99.90
23289;DHT22;11813;50.834;4.280;2022-07-04T03:10:50;15.00;99.90
23289;DHT22;11813;50.834;4.280;2022-07-04T03:13:17;15.00;99.90
23289;DHT22;11813;50.834;4.280;2022-07-04T03:15:43;15.00;99.90
23289;DHT22;11813;50.834;4.280;2022-07-04T03:18:08;14.90;99.90
23289;DHT22;11813;50.834;4.280;2022-07-04T03:20:34;15.00;99.90
23289;DHT22;11813;50.834;4.280;2022-07-04T03:23:00;15.00;99.90
23289;DHT22;11813;50.834;4.280;2022-07-04T03:25:25;15.00;99.90
23289;DHT22;11813;50.834;4.280;2022-07-04T03:27:51;14.90;99.90
23289;DHT22;11813;50.834;4.280;2022-07-04T03:30:17;14.90;99.90
23289;DHT22;11813;50.834;4.280;2022-07-04T03:32:43;14.90;99.90
23289;DHT22;11813;50.834;4.280;2022-07-04T03:35:08;14.80;99.90
23289;DHT22;11813;50.834;4.280;2022-07-04T03:37:34;14.60;99.90
23289;DHT22;11813;50.834;4.280;2022-07-04T03:40:00;14.50;99.90
23289;DHT22;11813;50.834;4.280;2022-07-04T03:42:25;14.60;99.90
23289;DHT22;11813;50.834;4.280;2022-07-04T03:44:51;14.70;99.90
23289;DHT22;11813;50.834;4.280;2022-07-04T03:47:17;14.80;99.90
23289;DHT22;11813;50.834;4.280;2022-07-04T03:49:43;14.90;99.90
23289;DHT22;11813;50.834;4.280;2022-07-04T03:52:09;14.90;99.90
23289;DHT22;11813;50.834;4.280;2022-07-04T03:54:34;14.80;99.90
23289;DHT22;11813;50.834;4.280;2022-07-04T03:57:00;14.80;99.90
23289;DHT22;11813;50.834;4.280;2022-07-04T03:59:26;14.80;99.90
23289;DHT22;11813;50.834;4.280;2022-07-04T04:01:51;14.80;99.90
23289;DHT22;11813;50.834;4.280;2022-07-04T04:04:17;14.80;99.90
23289;DHT22;11813;50.834;4.280;2022-07-04T04:07:01;14.80;99.90
23289;DHT22;11813;50.834;4.280;2022-07-04T04:09:27;14.80;99.90
23289;DHT22;11813;50.834;4.280;2022-07-04T04:11:53;14.80;99.90
23289;DHT22;11813;50.834;4.280;2022-07-04T04:14:19;14.80;99.90
23289;DHT22;11813;50.834;4.280;2022-07-04T04:16:44;14.90;99.90
23289;DHT22;11813;50.834;4.280;2022-07-04T04:19:10;14.90;99.90
23289;DHT22;11813;50.834;4.280;2022-07-04T04:21:36;14.90;99.90
23289;DHT22;11813;50.834;4.280;2022-07-04T04:24:02;14.80;99.90
23289;DHT22;11813;50.834;4.280;2022-07-04T04:26:28;14.80;99.90
23289;DHT22;11813;50.834;4.280;2022-07-04T04:28:54;14.80;99.90
23289;DHT22;11813;50.834;4.280;2022-07-04T04:31:20;14.90;99.90
23289;DHT22;11813;50.834;4.280;2022-07-04T04:33:45;15.00;99.90
23289;DHT22;11813;50.834;4.280;2022-07-04T04:36:11;14.80;99.90
23289;DHT22;11813;50.834;4.280;2022-07-04T04:38:37;14.60;99.90
23289;DHT22;11813;50.834;4.280;2022-07-04T04:41:03;14.70;99.90
23289;DHT22;11813;50.834;4.280;2022-07-04T04:43:28;14.70;99.90
23289;DHT22;11813;50.834;4.280;2022-07-04T04:45:54;14.60;99.90
23289;DHT22;11813;50.834;4.280;2022-07-04T04:48:20;14.70;99.90
23289;DHT22;11813;50.834;4.280;2022-07-04T04:50:45;14.70;99.90
23289;DHT22;11813;50.834;4.280;2022-07-04T04:53:11;14.80;99.90
23289;DHT22;11813;50.834;4.280;2022-07-04T04:55:37;14.80;99.90
23289;DHT22;11813;50.834;4.280;2022-07-04T04:58:02;14.80;99.90
23289;DHT22;11813;50.834;4.280;2022-07-04T05:00:28;14.80;99.90
23289;DHT22;11813;50.834;4.280;2022-07-04T05:02:54;14.90;99.90
23289;DHT22;11813;50.834;4.280;2022-07-04T05:05:19;15.00;99.90
23289;DHT22;11813;50.834;4.280;2022-07-04T05:07:45;15.10;99.90
23289;DHT22;11813;50.834;4.280;2022-07-04T05:10:10;15.30;99.90
23289;DHT22;11813;50.834;4.280;2022-07-04T05:12:36;15.30;99.90
23289;DHT22;11813;50.834;4.280;2022-07-04T05:15:02;15.20;99.90
23289;DHT22;11813;50.834;4.280;2022-07-04T05:17:28;15.30;99.90
23289;DHT22;11813;50.834;4.280;2022-07-04T05:19:53;15.40;99.90
23289;DHT22;11813;50.834;4.280;2022-07-04T05:22:19;15.60;99.90
23289;DHT22;11813;50.834;4.280;2022-07-04T05:24:45;15.70;99.90
23289;DHT22;11813;50.834;4.280;2022-07-04T05:27:10;15.80;99.90
23289;DHT22;11813;50.834;4.280;2022-07-04T05:29:36;16.00;99.90
23289;DHT22;11813;50.834;4.280;2022-07-04T05:32:03;16.00;99.90
23289;DHT22;11813;50.834;4.280;2022-07-04T05:34:29;16.00;99.90
23289;DHT22;11813;50.834;4.280;2022-07-04T05:36:55;16.00;99.90
23289;DHT22;11813;50.834;4.280;2022-07-04T05:39:21;16.10;99.90
23289;DHT22;11813;50.834;4.280;2022-07-04T05:41:46;16.20;99.90
23289;DHT22;11813;50.834;4.280;2022-07-04T05:44:12;16.20;99.90
23289;DHT22;11813;50.834;4.280;2022-07-04T05:46:37;16.20;99.90
23289;DHT22;11813;50.834;4.280;2022-07-04T05:49:03;16.20;99.90
23289;DHT22;11813;50.834;4.280;2022-07-04T05:51:29;16.30;99.90
23289;DHT22;11813;50.834;4.280;2022-07-04T05:53:54;16.40;99.90
23289;DHT22;11813;50.834;4.280;2022-07-04T05:56:20;16.50;99.90
23289;DHT22;11813;50.834;4.280;2022-07-04T05:58:46;16.60;99.90
23289;DHT22;11813;50.834;4.280;2022-07-04T06:01:11;16.90;99.90
23289;DHT22;11813;50.834;4.280;2022-07-04T06:03:37;16.90;99.90
23289;DHT22;11813;50.834;4.280;2022-07-04T06:06:04;16.70;99.90
23289;DHT22;11813;50.834;4.280;2022-07-04T06:08:29;16.80;99.90
23289;DHT22;11813;50.834;4.280;2022-07-04T06:10:55;16.80;99.90
23289;DHT22;11813;50.834;4.280;2022-07-04T06:13:21;17.00;99.90
23289;DHT22;11813;50.834;4.280;2022-07-04T06:15:49;17.10;99.90
23289;DHT22;11813;50.834;4.280;2022-07-04T06:18:14;17.20;99.90
23289;DHT22;11813;50.834;4.280;2022-07-04T06:20:41;17.40;99.90
23289;DHT22;11813;50.834;4.280;2022-07-04T06:23:07;17.50;99.90
23289;DHT22;11813;50.834;4.280;2022-07-04T06:25:33;17.60;99.90
23289;DHT22;11813;50.834;4.280;2022-07-04T06:28:00;17.80;99.90
23289;DHT22;11813;50.834;4.280;2022-07-04T06:30:26;17.80;99.90
23289;DHT22;11813;50.834;4.280;2022-07-04T06:32:54;17.90;99.90
23289;DHT22;11813;50.834;4.280;2022-07-04T06:35:23;17.90;99.90
23289;DHT22;11813;50.834;4.280;2022-07-04T06:38:08;18.00;99.90
23289;DHT22;11813;50.834;4.280;2022-07-04T06:40:35;18.10;99.90
23289;DHT22;11813;50.834;4.280;2022-07-04T06:43:01;18.30;99.90
23289;DHT22;11813;50.834;4.280;2022-07-04T06:45:26;18.40;99.90
23289;DHT22;11813;50.834;4.280;2022-07-04T06:47:52;18.50;99.90
23289;DHT22;11813;50.834;4.280;2022-07-04T06:50:18;18.40;99.90
23289;DHT22;11813;50.834;4.280;2022-07-04T06:52:45;18.50;99.90
23289;DHT22;11813;50.834;4.280;2022-07-04T06:55:11;18.80;99.90
23289;DHT22;11813;50.834;4.280;2022-07-04T06:57:37;19.00;99.90
23289;DHT22;11813;50.834;4.280;2022-07-04T07:00:04;19.20;99.90
23289;DHT22;11813;50.834;4.280;2022-07-04T07:02:30;19.20;99.90
23289;DHT22;11813;50.834;4.280;2022-07-04T07:04:56;19.10;99.90
23289;DHT22;11813;50.834;4.280;2022-07-04T07:07:23;19.40;99.90
23289;DHT22;11813;50.834;4.280;2022-07-04T07:09:53;19.40;99.90
23289;DHT22;11813;50.834;4.280;2022-07-04T07:12:20;19.20;99.90
23289;DHT22;11813;50.834;4.280;2022-07-04T07:14:46;19.20;99.90
23289;DHT22;11813;50.834;4.280;2022-07-04T07:17:12;19.20;99.90
23289;DHT22;11813;50.834;4.280;2022-07-04T07:19:37;19.30;99.90
23289;DHT22;11813;50.834;4.280;2022-07-04T07:22:03;19.30;99.90
23289;DHT22;11813;50.834;4.280;2022-07-04T07:24:29;19.40;99.90
23289;DHT22;11813;50.834;4.280;2022-07-04T07:26:57;19.50;99.90
23289;DHT22;11813;50.834;4.280;2022-07-04T07:29:23;19.50;99.90
23289;DHT22;11813;50.834;4.280;2022-07-04T07:31:49;19.70;99.90
23289;DHT22;11813;50.834;4.280;2022-07-04T07:34:15;19.90;99.90
23289;DHT22;11813;50.834;4.280;2022-07-04T07:36:40;20.10;99.90
23289;DHT22;11813;50.834;4.280;2022-07-04T07:39:06;20.10;99.90
23289;DHT22;11813;50.834;4.280;2022-07-04T07:41:32;20.10;99.90
23289;DHT22;11813;50.834;4.280;2022-07-04T07:43:57;20.20;99.90
23289;DHT22;11813;50.834;4.280;2022-07-04T07:46:23;20.20;99.90
23289;DHT22;11813;50.834;4.280;2022-07-04T07:48:49;20.30;99.90
23289;DHT22;11813;50.834;4.280;2022-07-04T07:51:14;20.40;99.90
23289;DHT22;11813;50.834;4.280;2022-07-04T07:53:42;20.40;99.90
23289;DHT22;11813;50.834;4.280;2022-07-04T07:56:08;20.40;99.90
23289;DHT22;11813;50.834;4.280;2022-07-04T07:58:33;20.40;99.90
23289;DHT22;11813;50.834;4.280;2022-07-04T08:00:59;20.40;99.90
23289;DHT22;11813;50.834;4.280;2022-07-04T08:03:27;20.50;99.90
23289;DHT22;11813;50.834;4.280;2022-07-04T08:06:12;20.50;99.90
23289;DHT22;11813;50.834;4.280;2022-07-04T08:08:42;20.50;99.90
23289;DHT22;11813;50.834;4.280;2022-07-04T08:11:09;20.60;99.90
23289;DHT22;11813;50.834;4.280;2022-07-04T08:13:36;20.60;99.90
23289;DHT22;11813;50.834;4.280;2022-07-04T08:16:02;20.70;99.90
23289;DHT22;11813;50.834;4.280;2022-07-04T08:18:28;20.80;99.90
23289;DHT22;11813;50.834;4.280;2022-07-04T08:20:53;21.00;99.90
23289;DHT22;11813;50.834;4.280;2022-07-04T08:23:19;21.00;99.90
23289;DHT22;11813;50.834;4.280;2022-07-04T08:25:45;21.20;99.90
23289;DHT22;11813;50.834;4.280;2022-07-04T08:28:10;21.30;99.90
23289;DHT22;11813;50.834;4.280;2022-07-04T08:30:36;21.20;99.90
23289;DHT22;11813;50.834;4.280;2022-07-04T08:33:02;21.30;99.90
23289;DHT22;11813;50.834;4.280;2022-07-04T08:35:28;21.10;99.90
23289;DHT22;11813;50.834;4.280;2022-07-04T08:37:53;21.10;99.90
23289;DHT22;11813;50.834;4.280;2022-07-04T08:40:25;21.30;99.90
23289;DHT22;11813;50.834;4.280;2022-07-04T08:42:51;21.40;99.90
23289;DHT22;11813;50.834;4.280;2022-07-04T08:45:18;21.50;99.90
23289;DHT22;11813;50.834;4.280;2022-07-04T08:47:51;21.70;99.90
23289;DHT22;11813;50.834;4.280;2022-07-04T08:50:47;21.70;99.90
23289;DHT22;11813;50.834;4.280;2022-07-04T08:53:12;21.70;99.90
23289;DHT22;11813;50.834;4.280;2022-07-04T08:55:39;21.70;99.90
23289;DHT22;11813;50.834;4.280;2022-07-04T08:58:24;21.70;99.90
23289;DHT22;11813;50.834;4.280;2022-07-04T09:01:04;21.70;99.90
23289;DHT22;11813;50.834;4.280;2022-07-04T09:03:31;21.70;99.90
23289;DHT22;11813;50.834;4.280;2022-07-04T09:05:57;21.80;99.90
23289;DHT22;11813;50.834;4.280;2022-07-04T09:08:23;22.00;99.90
23289;DHT22;11813;50.834;4.280;2022-07-04T09:10:50;22.10;99.90
23289;DHT22;11813;50.834;4.280;2022-07-04T09:13:17;22.30;99.90
23289;DHT22;11813;50.834;4.280;2022-07-04T09:15:48;22.40;99.90
23289;DHT22;11813;50.834;4.280;2022-07-04T09:18:31;22.40;99.90
23289;DHT22;11813;50.834;4.280;2022-07-04T09:21:03;22.40;99.90
23289;DHT22;11813;50.834;4.280;2022-07-04T09:23:32;22.50;99.90
23289;DHT22;11813;50.834;4.280;2022-07-04T09:26:15;22.60;99.90
23289;DHT22;11813;50.834;4.280;2022-07-04T09:28:43;22.80;99.90
23289;DHT22;11813;50.834;4.280;2022-07-04T09:31:17;22.90;99.90
23289;DHT22;11813;50.834;4.280;2022-07-04T09:36:24;23.10;99.90
23289;DHT22;11813;50.834;4.280;2022-07-04T09:41:32;23.20;99.90
23289;DHT22;11813;50.834;4.280;2022-07-04T09:44:14;23.30;99.90
23289;DHT22;11813;50.834;4.280;2022-07-04T09:46:39;23.20;99.90
23289;DHT22;11813;50.834;4.280;2022-07-04T09:49:05;23.40;99.90
23289;DHT22;11813;50.834;4.280;2022-07-04T09:54:35;23.30;99.90
23289;DHT22;11813;50.834;4.280;2022-07-04T09:57:02;23.40;99.90
23289;DHT22;11813;50.834;4.280;2022-07-04T09:59:29;23.60;99.90
23289;DHT22;11813;50.834;4.280;2022-07-04T10:02:12;23.70;99.90
23289;DHT22;11813;50.834;4.280;2022-07-04T10:04:50;23.90;99.90
23289;DHT22;11813;50.834;4.280;2022-07-04T10:07:37;23.90;99.90
23289;DHT22;11813;50.834;4.280;2022-07-04T10:12:51;23.90;99.90
23289;DHT22;11813;50.834;4.280;2022-07-04T10:15:18;24.00;99.90
23289;DHT22;11813;50.834;4.280;2022-07-04T10:17:44;23.90;99.90
23289;DHT22;11813;50.834;4.280;2022-07-04T10:20:13;24.10;99.90
23289;DHT22;11813;50.834;4.280;2022-07-04T10:22:40;24.40;99.90
23289;DHT22;11813;50.834;4.280;2022-07-04T10:25:06;24.40;99.90
23289;DHT22;11813;50.834;4.280;2022-07-04T10:27:33;24.30;99.90
23289;DHT22;11813;50.834;4.280;2022-07-04T10:30:00;24.20;99.90
23289;DHT22;11813;50.834;4.280;2022-07-04T10:32:27;24.30;99.90
23289;DHT22;11813;50.834;4.280;2022-07-04T10:34:53;24.30;99.90
23289;DHT22;11813;50.834;4.280;2022-07-04T10:37:19;24.60;99.90
23289;DHT22;11813;50.834;4.280;2022-07-04T10:39:46;24.90;99.90
23289;DHT22;11813;50.834;4.280;2022-07-04T10:42:22;25.20;99.90
23289;DHT22;11813;50.834;4.280;2022-07-04T10:44:49;25.10;99.90
23289;DHT22;11813;50.834;4.280;2022-07-04T10:47:25;24.80;99.90
23289;DHT22;11813;50.834;4.280;2022-07-04T10:49:55;24.70;99.90
23289;DHT22;11813;50.834;4.280;2022-07-04T10:52:20;24.80;99.90
23289;DHT22;11813;50.834;4.280;2022-07-04T10:54:46;24.70;99.90
23289;DHT22;11813;50.834;4.280;2022-07-04T10:59:38;24.30;99.90
23289;DHT22;11813;50.834;4.280;2022-07-04T11:17:50;25.70;99.90
23289;DHT22;11813;50.834;4.280;2022-07-04T11:20:18;26.00;99.90
23289;DHT22;11813;50.834;4.280;2022-07-04T11:22:43;25.90;99.90
23289;DHT22;11813;50.834;4.280;2022-07-04T11:25:11;26.00;99.90
23289;DHT22;11813;50.834;4.280;2022-07-04T11:27:40;26.10;99.90
23289;DHT22;11813;50.834;4.280;2022-07-04T11:30:06;25.90;99.90
23289;DHT22;11813;50.834;4.280;2022-07-04T11:32:34;25.70;99.90
23289;DHT22;11813;50.834;4.280;2022-07-04T11:35:00;25.70;99.90
23289;DHT22;11813;50.834;4.280;2022-07-04T11:37:27;25.80;99.90
23289;DHT22;11813;50.834;4.280;2022-07-04T11:39:53;25.70;99.90
23289;DHT22;11813;50.834;4.280;2022-07-04T11:42:39;25.70;99.90
23289;DHT22;11813;50.834;4.280;2022-07-04T11:45:34;26.00;99.90
23289;DHT22;11813;50.834;4.280;2022-07-04T11:48:00;26.30;99.90
23289;DHT22;11813;50.834;4.280;2022-07-04T11:50:25;26.40;99.90
23289;DHT22;11813;50.834;4.280;2022-07-04T11:52:51;26.50;99.90
23289;DHT22;11813;50.834;4.280;2022-07-04T11:55:19;27.00;99.90
23289;DHT22;11813;50.834;4.280;2022-07-04T11:57:48;27.00;99.90
23289;DHT22;11813;50.834;4.280;2022-07-04T12:00:20;26.90;99.90
23289;DHT22;11813;50.834;4.280;2022-07-04T12:02:48;26.70;99.90
23289;DHT22;11813;50.834;4.280;2022-07-04T12:05:15;26.70;99.90
23289;DHT22;11813;50.834;4.280;2022-07-04T12:07:44;27.00;99.90
23289;DHT22;11813;50.834;4.280;2022-07-04T12:10:15;27.00;99.90
23289;DHT22;11813;50.834;4.280;2022-07-04T12:12:58;27.20;99.90
23289;DHT22;11813;50.834;4.280;2022-07-04T12:15:25;27.20;99.90
23289;DHT22;11813;50.834;4.280;2022-07-04T12:18:00;27.40;99.90
23289;DHT22;11813;50.834;4.280;2022-07-04T12:20:26;27.80;99.90
23289;DHT22;11813;50.834;4.280;2022-07-04T12:22:57;28.00;99.90
23289;DHT22;11813;50.834;4.280;2022-07-04T12:25:31;28.00;99.90
23289;DHT22;11813;50.834;4.280;2022-07-04T12:30:30;28.30;99.90
23289;DHT22;11813;50.834;4.280;2022-07-04T12:32:59;28.50;99.90
23289;DHT22;11813;50.834;4.280;2022-07-04T12:35:35;28.50;99.90
23289;DHT22;11813;50.834;4.280;2022-07-04T12:40:34;28.80;99.90
23289;DHT22;11813;50.834;4.280;2022-07-04T12:43:00;28.80;99.90
23289;DHT22;11813;50.834;4.280;2022-07-04T12:45:26;28.20;99.90
23289;DHT22;11813;50.834;4.280;2022-07-04T12:48:14;27.70;99.90
23289;DHT22;11813;50.834;4.280;2022-07-04T12:50:40;27.50;99.90
23289;DHT22;11813;50.834;4.280;2022-07-04T12:53:06;27.40;99.90
23289;DHT22;11813;50.834;4.280;2022-07-04T12:55:31;27.30;99.90
23289;DHT22;11813;50.834;4.280;2022-07-04T12:57:57;27.30;99.90
23289;DHT22;11813;50.834;4.280;2022-07-04T13:00:22;27.40;99.90
23289;DHT22;11813;50.834;4.280;2022-07-04T13:02:49;27.50;99.90
23289;DHT22;11813;50.834;4.280;2022-07-04T13:05:15;27.40;99.90
23289;DHT22;11813;50.834;4.280;2022-07-04T13:07:41;27.10;99.90
23289;DHT22;11813;50.834;4.280;2022-07-04T13:10:07;26.80;99.90
23289;DHT22;11813;50.834;4.280;2022-07-04T13:12:33;26.20;99.90
23289;DHT22;11813;50.834;4.280;2022-07-04T13:14:59;26.00;99.90
23289;DHT22;11813;50.834;4.280;2022-07-04T13:17:25;26.40;99.90
23289;DHT22;11813;50.834;4.280;2022-07-04T13:19:52;27.00;99.90
23289;DHT22;11813;50.834;4.280;2022-07-04T13:22:21;27.50;99.90
23289;DHT22;11813;50.834;4.280;2022-07-04T13:24:48;27.90;99.90
23289;DHT22;11813;50.834;4.280;2022-07-04T13:27:13;28.50;99.90
23289;DHT22;11813;50.834;4.280;2022-07-04T13:29:39;28.60;99.90
23289;DHT22;11813;50.834;4.280;2022-07-04T13:32:05;28.80;99.90
23289;DHT22;11813;50.834;4.280;2022-07-04T13:34:31;28.60;99.90
23289;DHT22;11813;50.834;4.280;2022-07-04T13:36:56;28.10;99.90
23289;DHT22;11813;50.834;4.280;2022-07-04T13:39:23;28.00;99.90
23289;DHT22;11813;50.834;4.280;2022-07-04T13:41:49;27.80;99.90
23289;DHT22;11813;50.834;4.280;2022-07-04T13:44:14;27.30;99.90
23289;DHT22;11813;50.834;4.280;2022-07-04T13:46:42;27.20;99.90
23289;DHT22;11813;50.834;4.280;2022-07-04T13:49:08;27.20;99.90
23289;DHT22;11813;50.834;4.280;2022-07-04T13:51:34;27.20;99.90
23289;DHT22;11813;50.834;4.280;2022-07-04T13:54:00;27.00;99.90
23289;DHT22;11813;50.834;4.280;2022-07-04T13:56:26;27.30;99.90
23289;DHT22;11813;50.834;4.280;2022-07-04T13:58:52;27.40;99.90
23289;DHT22;11813;50.834;4.280;2022-07-04T14:01:18;27.70;99.90
23289;DHT22;11813;50.834;4.280;2022-07-04T14:03:45;28.10;99.90
23289;DHT22;11813;50.834;4.280;2022-07-04T14:06:11;28.30;99.90
23289;DHT22;11813;50.834;4.280;2022-07-04T14:08:38;28.20;99.90
23289;DHT22;11813;50.834;4.280;2022-07-04T14:11:04;28.10;99.90
23289;DHT22;11813;50.834;4.280;2022-07-04T14:13:30;28.40;99.90
23289;DHT22;11813;50.834;4.280;2022-07-04T14:15:56;28.50;99.90
23289;DHT22;11813;50.834;4.280;2022-07-04T14:18:21;28.80;99.90
23289;DHT22;11813;50.834;4.280;2022-07-04T14:20:47;29.10;99.90
23289;DHT22;11813;50.834;4.280;2022-07-04T14:23:14;29.40;99.90
23289;DHT22;11813;50.834;4.280;2022-07-04T14:26:00;29.70;99.90
23289;DHT22;11813;50.834;4.280;2022-07-04T14:28:26;29.90;99.90
23289;DHT22;11813;50.834;4.280;2022-07-04T14:30:51;29.80;99.90
23289;DHT22;11813;50.834;4.280;2022-07-04T14:33:17;29.80;99.90
23289;DHT22;11813;50.834;4.280;2022-07-04T14:35:42;29.80;99.90
23289;DHT22;11813;50.834;4.280;2022-07-04T14:38:08;29.80;99.90
23289;DHT22;11813;50.834;4.280;2022-07-04T14:40:33;29.60;99.90
23289;DHT22;11813;50.834;4.280;2022-07-04T14:42:59;29.30;99.90
23289;DHT22;11813;50.834;4.280;2022-07-04T14:45:25;29.20;99.90
23289;DHT22;11813;50.834;4.280;2022-07-04T14:47:50;29.10;99.90
23289;DHT22;11813;50.834;4.280;2022-07-04T14:50:16;29.10;99.90
23289;DHT22;11813;50.834;4.280;2022-07-04T14:52:41;29.10;99.90
23289;DHT22;11813;50.834;4.280;2022-07-04T14:55:07;29.10;99.90
23289;DHT22;11813;50.834;4.280;2022-07-04T14:57:33;29.20;99.90
23289;DHT22;11813;50.834;4.280;2022-07-04T14:59:58;29.30;99.90
23289;DHT22;11813;50.834;4.280;2022-07-04T15:02:24;28.80;99.90
23289;DHT22;11813;50.834;4.280;2022-07-04T15:04:49;28.40;99.90
23289;DHT22;11813;50.834;4.280;2022-07-04T15:07:16;28.30;99.90
23289;DHT22;11813;50.834;4.280;2022-07-04T15:09:41;28.20;99.90
23289;DHT22;11813;50.834;4.280;2022-07-04T15:12:07;28.20;99.90
23289;DHT22;11813;50.834;4.280;2022-07-04T15:14:33;28.60;99.90
23289;DHT22;11813;50.834;4.280;2022-07-04T15:16:58;28.80;99.90
23289;DHT22;11813;50.834;4.280;2022-07-04T15:19:26;29.30;99.90
23289;DHT22;11813;50.834;4.280;2022-07-04T15:21:51;29.70;99.90
23289;DHT22;11813;50.834;4.280;2022-07-04T15:24:36;29.90;99.90
23289;DHT22;11813;50.834;4.280;2022-07-04T15:27:01;30.30;99.90
23289;DHT22;11813;50.834;4.280;2022-07-04T15:29:27;30.40;99.90
23289;DHT22;11813;50.834;4.280;2022-07-04T15:31:54;30.40;99.90
23289;DHT22;11813;50.834;4.280;2022-07-04T15:34:19;30.40;99.90
23289;DHT22;11813;50.834;4.280;2022-07-04T15:36:45;30.50;99.90
23289;DHT22;11813;50.834;4.280;2022-07-04T15:39:13;30.70;99.90
23289;DHT22;11813;50.834;4.280;2022-07-04T15:41:40;30.70;99.90
23289;DHT22;11813;50.834;4.280;2022-07-04T15:44:05;30.40;99.90
23289;DHT22;11813;50.834;4.280;2022-07-04T15:46:32;30.50;99.90
23289;DHT22;11813;50.834;4.280;2022-07-04T15:48:58;30.50;99.90
23289;DHT22;11813;50.834;4.280;2022-07-04T15:51:23;30.30;99.90
23289;DHT22;11813;50.834;4.280;2022-07-04T15:53:49;29.80;99.90
23289;DHT22;11813;50.834;4.280;2022-07-04T15:56:15;29.80;99.90
23289;DHT22;11813;50.834;4.280;2022-07-04T15:58:40;29.90;99.90
23289;DHT22;11813;50.834;4.280;2022-07-04T16:01:06;30.10;99.90
23289;DHT22;11813;50.834;4.280;2022-07-04T16:03:32;30.20;99.90